Time;durP1;ratioP1;P1;durP2;ratioP2;P2;SDS_P1;SDS_P2;PMS_P1;PMS_P2;Temp;Humidity;BMP_temperature;BMP_pressure;BME280_temperature;BME280_humidity;BME280_pressure;Samples;Min_cycle;Max_cycle;Signal;HPM_P1;HPM_P2
2021/04/08 00:01:58;;;;;;;12.23;4.10;;;1.60;99.90;;;;;;5032556;28;20030;-83
2021/04/08 00:04:23;;;;;;;12.90;5.03;;;1.60;99.90;;;;;;5032037;28;20021;-84
2021/04/08 00:06:49;;;;;;;13.07;4.93;;;1.50;99.90;;;;;;5034295;28;20101;-84
2021/04/08 00:09:15;;;;;;;12.55;5.43;;;1.50;99.90;;;;;;5048652;28;20132;-84
2021/04/08 00:11:40;;;;;;;11.82;5.05;;;1.50;99.90;;;;;;5034055;28;20041;-84
2021/04/08 00:14:08;;;;;;;11.63;5.82;;;1.50;99.90;;;;;;5032922;28;20025;-84
2021/04/08 00:16:33;;;;;;;15.10;5.63;;;1.50;99.90;;;;;;5032676;28;20021;-85
2021/04/08 00:18:59;;;;;;;11.32;6.05;;;1.50;99.90;;;;;;5034051;28;20484;-85
2021/04/08 00:21:24;;;;;;;15.30;6.93;;;1.50;99.90;;;;;;5032773;28;20021;-84
2021/04/08 00:23:50;;;;;;;14.18;6.15;;;1.50;99.90;;;;;;5016088;28;20179;-85
2021/04/08 00:26:15;;;;;;;18.70;7.05;;;1.50;99.90;;;;;;5032508;28;20028;-84
2021/04/08 00:28:41;;;;;;;13.40;6.00;;;1.50;99.90;;;;;;5047714;28;20031;-84
2021/04/08 00:31:06;;;;;;;10.85;5.35;;;1.50;99.90;;;;;;5033868;28;20029;-84
2021/04/08 00:33:32;;;;;;;14.35;6.55;;;1.50;99.90;;;;;;5021800;28;20025;-84
2021/04/08 00:35:58;;;;;;;14.05;6.60;;;1.50;99.90;;;;;;5032724;28;20013;-84
2021/04/08 00:38:24;;;;;;;15.25;6.35;;;1.50;99.90;;;;;;5034452;28;20480;-84
2021/04/08 00:40:50;;;;;;;15.77;6.53;;;1.50;99.90;;;;;;5037201;28;20022;-83
2021/04/08 00:43:15;;;;;;;13.73;5.63;;;1.50;99.90;;;;;;5036973;28;20401;-84
2021/04/08 00:45:41;;;;;;;11.27;5.35;;;1.50;99.90;;;;;;5032770;28;20021;-85
2021/04/08 00:48:06;;;;;;;12.25;5.10;;;1.50;99.90;;;;;;5030574;28;20053;-84
2021/04/08 00:50:32;;;;;;;11.75;4.38;;;1.50;99.90;;;;;;5033761;28;20033;-84
2021/04/08 00:53:01;;;;;;;23.77;4.88;;;1.50;99.90;;;;;;5032522;28;20029;-85
2021/04/08 00:55:35;;;;;;;11.47;3.47;;;1.60;99.90;;;;;;5033602;28;20024;-84
2021/04/08 00:58:03;;;;;;;10.85;3.35;;;1.60;99.90;;;;;;5048436;28;20267;-85
2021/04/08 01:00:30;;;;;;;13.63;3.22;;;1.70;99.90;;;;;;5046216;28;20018;-85
2021/04/08 01:02:55;;;;;;;9.70;2.92;;;1.70;99.90;;;;;;5018086;28;20514;-85
2021/04/08 01:05:21;;;;;;;8.93;2.20;;;1.70;99.90;;;;;;5031797;28;20144;-84
2021/04/08 01:07:46;;;;;;;13.45;2.05;;;1.80;99.90;;;;;;5033201;28;20099;-85
2021/04/08 01:10:13;;;;;;;11.38;1.95;;;1.80;99.90;;;;;;5033185;28;20021;-85
2021/04/08 01:12:39;;;;;;;9.75;1.88;;;1.90;99.90;;;;;;5033290;28;20473;-84
2021/04/08 01:15:06;;;;;;;5.43;1.48;;;1.90;99.90;;;;;;5032346;28;20108;-84
2021/04/08 01:18:06;;;;;;;8.73;1.88;;;1.90;99.90;;;;;;5033121;28;20055;-84
2021/04/08 01:21:02;;;;;;;10.55;1.80;;;2.00;99.90;;;;;;5004388;28;20124;-85
2021/04/08 01:23:49;;;;;;;10.13;1.65;;;1.90;99.90;;;;;;5031860;28;20421;-85
2021/04/08 01:26:51;;;;;;;10.25;2.08;;;1.90;99.90;;;;;;5033079;28;20105;-85
2021/04/08 01:29:29;;;;;;;6.40;2.30;;;2.00;99.90;;;;;;5046525;28;20033;-84
2021/04/08 01:31:58;;;;;;;10.07;2.03;;;2.00;99.90;;;;;;5047125;28;20018;-85
2021/04/08 01:34:25;;;;;;;6.30;1.85;;;2.00;99.90;;;;;;5030892;28;20021;-85
2021/04/08 01:36:55;;;;;;;11.27;1.88;;;2.10;99.90;;;;;;5030729;28;20101;-84
2021/04/08 01:39:22;;;;;;;7.53;1.38;;;2.10;99.90;;;;;;5030666;28;20083;-84
2021/04/08 01:41:48;;;;;;;5.45;1.50;;;2.20;99.90;;;;;;5018561;28;20049;-85
2021/04/08 01:44:21;;;;;;;5.45;1.73;;;2.20;99.90;;;;;;5032570;28;20079;-85
2021/04/08 01:46:57;;;;;;;10.27;2.45;;;2.20;99.90;;;;;;5030484;28;20041;-85
2021/04/08 01:49:27;;;;;;;13.32;2.15;;;2.20;99.90;;;;;;5045932;28;20029;-85
2021/04/08 01:51:55;;;;;;;7.37;1.50;;;2.20;99.90;;;;;;5032619;28;20023;-85
2021/04/08 01:54:23;;;;;;;8.98;1.58;;;2.20;99.90;;;;;;5030981;28;20018;-84
2021/04/08 01:56:52;;;;;;;7.50;1.48;;;2.20;99.90;;;;;;5032545;28;20465;-84
2021/04/08 01:59:18;;;;;;;6.60;1.10;;;2.20;99.90;;;;;;5030953;28;20041;-84
2021/04/08 02:01:44;;;;;;;7.57;1.33;;;2.10;99.90;;;;;;5042313;28;20027;-84
2021/04/08 02:04:11;;;;;;;8.00;1.92;;;2.20;99.90;;;;;;5030932;28;20024;-85
2021/04/08 02:06:41;;;;;;;8.63;1.88;;;2.20;99.90;;;;;;5032283;28;20112;-85
2021/04/08 02:09:07;;;;;;;5.30;0.93;;;2.10;99.90;;;;;;5031043;28;20095;-85
2021/04/08 02:11:36;;;;;;;7.55;1.20;;;2.10;99.90;;;;;;5046452;28;20167;-84
2021/04/08 02:14:01;;;;;;;7.57;1.10;;;2.10;99.90;;;;;;5030849;28;20021;-85
2021/04/08 02:16:28;;;;;;;7.00;1.20;;;2.10;99.90;;;;;;5029339;28;20033;-84
2021/04/08 02:18:55;;;;;;;13.35;1.30;;;2.20;99.90;;;;;;5029689;28;20025;-85
2021/04/08 02:21:22;;;;;;;4.28;0.70;;;2.20;99.90;;;;;;5031877;28;20109;-85
2021/04/08 02:23:50;;;;;;;5.78;1.33;;;2.20;99.90;;;;;;5027632;28;20024;-85
2021/04/08 02:26:17;;;;;;;4.97;1.00;;;2.20;99.90;;;;;;5048774;28;20532;-85
2021/04/08 02:28:44;;;;;;;4.07;1.20;;;2.20;99.90;;;;;;5036115;28;20021;-84
2021/04/08 02:31:10;;;;;;;3.03;0.77;;;2.30;99.90;;;;;;5035766;28;20481;-84
2021/04/08 02:33:37;;;;;;;5.45;1.00;;;2.30;99.90;;;;;;5034784;28;20028;-85
2021/04/08 02:36:03;;;;;;;9.93;2.00;;;2.30;99.90;;;;;;5033374;28;20021;-85
2021/04/08 02:38:31;;;;;;;5.38;1.52;;;2.40;99.90;;;;;;5034594;28;20444;-85
2021/04/08 02:41:04;;;;;;;10.25;2.17;;;2.30;99.90;;;;;;5035536;28;20029;-84
2021/04/08 02:43:30;;;;;;;9.55;1.40;;;2.30;99.90;;;;;;5035986;28;20022;-84
2021/04/08 02:45:55;;;;;;;4.07;1.27;;;2.30;99.90;;;;;;5035699;28;20152;-85
2021/04/08 02:48:22;;;;;;;7.55;1.27;;;2.30;99.90;;;;;;5034312;28;20032;-85
2021/04/08 02:50:53;;;;;;;5.28;1.30;;;2.30;99.90;;;;;;5034455;28;20385;-85
2021/04/08 02:53:32;;;;;;;7.60;1.55;;;2.30;99.90;;;;;;5033989;28;20028;-84
2021/04/08 02:56:24;;;;;;;8.50;1.05;;;2.30;99.90;;;;;;5050080;28;20030;-83
2021/04/08 02:59:00;;;;;;;5.65;1.40;;;2.40;99.90;;;;;;5034544;28;20084;-85
2021/04/08 03:01:28;;;;;;;6.25;1.20;;;2.30;99.90;;;;;;5034005;28;20029;-84
2021/04/08 03:03:56;;;;;;;9.43;1.40;;;2.40;99.90;;;;;;5034405;28;20014;-85
2021/04/08 03:06:23;;;;;;;6.55;1.50;;;2.40;99.90;;;;;;5034063;28;20025;-84
2021/04/08 03:08:52;;;;;;;9.18;1.92;;;2.40;99.90;;;;;;5035438;28;20484;-84
2021/04/08 03:11:24;;;;;;;5.45;1.38;;;2.40;99.90;;;;;;5049542;28;20056;-84
2021/04/08 03:13:52;;;;;;;6.80;1.30;;;2.40;99.90;;;;;;5033712;28;20029;-84
2021/04/08 03:16:22;;;;;;;3.90;1.05;;;2.40;99.90;;;;;;5034197;28;20037;-85
2021/04/08 03:18:50;;;;;;;8.52;1.30;;;2.40;99.90;;;;;;5036545;28;20033;-85
2021/04/08 03:21:16;;;;;;;8.18;1.58;;;2.40;99.90;;;;;;5034963;28;20119;-85
2021/04/08 03:23:43;;;;;;;8.88;1.15;;;2.40;99.90;;;;;;5020958;28;20080;-84
2021/04/08 03:26:10;;;;;;;5.68;1.20;;;2.30;99.90;;;;;;5019248;28;20033;-85
2021/04/08 03:28:37;;;;;;;5.63;1.23;;;2.40;99.90;;;;;;5033730;28;20049;-84
2021/04/08 03:31:04;;;;;;;4.75;1.00;;;2.40;99.90;;;;;;5033140;28;20433;-84
2021/04/08 03:33:33;;;;;;;3.33;1.27;;;2.40;99.90;;;;;;5034861;28;20080;-84
2021/04/08 03:36:00;;;;;;;4.15;1.00;;;2.40;99.90;;;;;;5034888;28;20520;-84
2021/04/08 03:38:27;;;;;;;5.57;1.10;;;2.50;99.90;;;;;;5034091;28;20025;-84
2021/04/08 03:40:56;;;;;;;3.42;1.00;;;2.50;99.90;;;;;;5034637;28;20025;-85
2021/04/08 03:43:22;;;;;;;4.05;1.52;;;2.50;99.90;;;;;;5017298;28;20120;-84
2021/04/08 03:45:47;;;;;;;9.40;1.10;;;2.50;99.90;;;;;;5034753;28;20045;-85
2021/04/08 03:48:15;;;;;;;5.03;1.02;;;2.50;99.90;;;;;;5033288;28;20048;-85
2021/04/08 03:50:42;;;;;;;11.80;1.50;;;2.50;99.90;;;;;;5034496;28;20030;-84
2021/04/08 03:53:08;;;;;;;8.30;1.23;;;2.50;99.90;;;;;;5033477;28;20025;-85
2021/04/08 03:55:35;;;;;;;5.32;1.30;;;2.50;99.90;;;;;;5049132;28;20052;-84
2021/04/08 03:58:04;;;;;;;5.82;1.52;;;2.40;99.90;;;;;;5033240;28;20024;-84
2021/04/08 04:00:30;;;;;;;4.90;1.45;;;2.40;99.90;;;;;;5049736;28;20029;-84
2021/04/08 04:02:56;;;;;;;8.80;1.88;;;2.40;99.90;;;;;;5034170;28;20025;-85
2021/04/08 04:05:23;;;;;;;5.45;1.40;;;2.40;99.90;;;;;;5031576;28;20074;-84
2021/04/08 04:07:51;;;;;;;10.00;1.55;;;2.40;99.90;;;;;;5033223;28;20024;-84
2021/04/08 04:10:22;;;;;;;6.47;2.20;;;2.40;99.90;;;;;;5016707;28;20022;-85
2021/04/08 04:12:51;;;;;;;7.47;2.10;;;2.40;99.90;;;;;;5033047;28;20104;-84
2021/04/08 04:15:17;;;;;;;9.10;2.42;;;2.50;99.90;;;;;;5048534;28;20022;-84
2021/04/08 04:17:43;;;;;;;7.88;2.63;;;2.50;99.90;;;;;;5032943;28;20028;-84
2021/04/08 04:20:09;;;;;;;7.80;2.88;;;2.40;99.90;;;;;;5019313;28;20026;-85
2021/04/08 04:22:36;;;;;;;8.32;2.30;;;2.50;99.90;;;;;;5034060;28;20022;-85
2021/04/08 04:25:04;;;;;;;9.52;1.88;;;2.50;99.90;;;;;;5033879;28;20021;-84
2021/04/08 04:27:30;;;;;;;7.50;2.88;;;2.50;99.90;;;;;;5031781;28;20017;-84
2021/04/08 04:29:55;;;;;;;6.15;2.35;;;2.50;99.90;;;;;;5048213;28;20359;-84
2021/04/08 04:32:21;;;;;;;9.35;2.75;;;2.50;99.90;;;;;;5032607;28;20032;-84
2021/04/08 04:34:46;;;;;;;13.80;3.92;;;2.50;99.90;;;;;;5033661;28;20475;-84
2021/04/08 04:37:12;;;;;;;7.20;3.67;;;2.50;99.90;;;;;;5046048;28;20027;-84
2021/04/08 04:39:39;;;;;;;8.77;3.75;;;2.60;99.90;;;;;;5032588;28;20025;-85
2021/04/08 04:42:06;;;;;;;8.43;3.60;;;2.60;99.90;;;;;;5038620;28;20053;-84
2021/04/08 04:44:32;;;;;;;11.32;4.38;;;2.60;99.90;;;;;;5032107;28;20029;-84
2021/04/08 04:46:57;;;;;;;7.03;3.30;;;2.60;99.90;;;;;;5032369;28;20018;-85
2021/04/08 04:49:24;;;;;;;7.95;3.35;;;2.60;99.90;;;;;;5032045;28;20496;-84
2021/04/08 04:51:50;;;;;;;7.80;3.83;;;2.60;99.90;;;;;;5032296;28;20022;-84
2021/04/08 04:54:16;;;;;;;11.02;5.05;;;2.60;99.90;;;;;;5033520;28;20029;-84
2021/04/08 04:56:41;;;;;;;16.60;5.05;;;2.60;99.90;;;;;;5033263;28;20036;-84
2021/04/08 04:59:07;;;;;;;17.17;4.32;;;2.60;99.90;;;;;;5033328;28;20030;-84
2021/04/08 05:01:32;;;;;;;11.10;4.60;;;2.60;99.90;;;;;;5033151;28;20021;-85
2021/04/08 05:03:58;;;;;;;12.60;4.88;;;2.60;99.90;;;;;;5029707;28;20028;-84
2021/04/08 05:06:24;;;;;;;14.55;4.57;;;2.60;99.90;;;;;;5032967;28;20018;-84
2021/04/08 05:08:50;;;;;;;10.52;4.20;;;2.60;99.90;;;;;;5033360;28;20108;-84
2021/04/08 05:11:15;;;;;;;10.80;4.13;;;2.60;99.90;;;;;;5030607;28;20112;-85
2021/04/08 05:13:41;;;;;;;10.10;4.53;;;2.60;99.90;;;;;;5031690;28;20167;-85
2021/04/08 05:16:06;;;;;;;9.90;4.25;;;2.60;99.90;;;;;;5029868;28;20030;-84
2021/04/08 05:18:32;;;;;;;9.85;3.72;;;2.60;99.90;;;;;;5031274;28;20030;-84
2021/04/08 05:20:58;;;;;;;12.93;5.15;;;2.50;99.90;;;;;;5026490;28;20018;-84
2021/04/08 05:23:24;;;;;;;7.55;4.63;;;2.50;99.90;;;;;;5028797;28;20029;-84
2021/04/08 05:25:50;;;;;;;9.32;3.67;;;2.50;99.90;;;;;;5013501;28;20018;-84
2021/04/08 05:28:15;;;;;;;9.30;3.80;;;2.40;99.90;;;;;;5012299;28;20033;-84
2021/04/08 05:30:41;;;;;;;11.25;3.80;;;2.30;99.90;;;;;;5012706;28;20034;-84
2021/04/08 05:33:06;;;;;;;9.07;3.97;;;2.30;99.90;;;;;;5029141;28;20485;-84
2021/04/08 05:35:32;;;;;;;12.77;3.90;;;2.30;99.90;;;;;;5028615;28;20073;-84
2021/04/08 05:37:58;;;;;;;5.70;3.33;;;2.30;99.90;;;;;;5013334;28;20026;-84
2021/04/08 05:40:23;;;;;;;11.23;4.40;;;2.40;99.90;;;;;;5013306;28;20034;-84
2021/04/08 05:42:49;;;;;;;11.23;3.78;;;2.50;99.90;;;;;;5012315;28;20184;-83
2021/04/08 05:45:17;;;;;;;8.57;3.70;;;2.50;99.90;;;;;;5028909;28;20057;-85
2021/04/08 05:47:43;;;;;;;6.32;3.28;;;2.50;99.90;;;;;;5013609;28;20217;-85
2021/04/08 05:50:10;;;;;;;7.93;3.25;;;2.60;99.90;;;;;;5013560;28;20562;-83
2021/04/08 05:52:35;;;;;;;11.38;3.78;;;2.60;99.90;;;;;;5013488;28;20030;-85
2021/04/08 05:55:01;;;;;;;8.32;3.70;;;2.60;99.90;;;;;;5012370;28;20168;-86
2021/04/08 05:57:28;;;;;;;11.00;3.83;;;2.70;99.90;;;;;;5012231;28;20504;-86
2021/04/08 05:59:54;;;;;;;12.23;3.72;;;2.70;99.90;;;;;;5012019;28;20112;-85
2021/04/08 06:02:19;;;;;;;12.23;3.60;;;2.70;99.90;;;;;;5013490;28;20237;-86
2021/04/08 06:04:45;;;;;;;9.13;3.90;;;2.70;99.90;;;;;;5028636;28;20057;-85
2021/04/08 06:07:10;;;;;;;12.48;4.28;;;2.70;99.90;;;;;;5012119;28;20030;-87
2021/04/08 06:09:36;;;;;;;8.05;3.25;;;2.70;99.90;;;;;;5026936;28;20026;-86
2021/04/08 06:12:02;;;;;;;8.60;3.30;;;2.70;99.90;;;;;;5030582;28;20548;-86
2021/04/08 06:14:28;;;;;;;8.65;3.40;;;2.70;99.90;;;;;;5018367;28;20367;-87
2021/04/08 06:16:55;;;;;;;8.43;3.40;;;2.80;99.90;;;;;;5030490;28;20535;-86
2021/04/08 06:19:20;;;;;;;10.95;3.25;;;2.80;99.90;;;;;;5030962;28;20392;-86
2021/04/08 06:21:46;;;;;;;8.48;3.47;;;2.80;99.90;;;;;;5030393;28;20124;-86
2021/04/08 06:24:11;;;;;;;7.93;3.08;;;2.70;99.90;;;;;;5047181;28;20030;-86
2021/04/08 06:26:37;;;;;;;7.97;3.35;;;2.70;99.90;;;;;;5032075;28;20528;-86
2021/04/08 06:29:03;;;;;;;8.38;3.22;;;2.70;99.90;;;;;;5032264;28;20033;-87
2021/04/08 06:31:28;;;;;;;7.45;3.20;;;2.60;99.90;;;;;;5025754;28;20138;-86
2021/04/08 06:33:54;;;;;;;10.18;3.65;;;2.60;99.90;;;;;;5030470;28;20144;-85
2021/04/08 06:36:21;;;;;;;8.00;3.20;;;2.60;99.90;;;;;;5030604;28;20331;-85
2021/04/08 06:38:47;;;;;;;7.20;3.55;;;2.60;99.90;;;;;;5029199;28;20116;-85
2021/04/08 06:41:15;;;;;;;9.95;3.20;;;2.70;99.90;;;;;;5032007;28;20022;-85
2021/04/08 06:43:42;;;;;;;9.32;4.13;;;2.70;99.90;;;;;;5030941;28;20022;-85
2021/04/08 06:46:09;;;;;;;7.80;2.85;;;2.70;99.90;;;;;;5028580;28;20032;-84
2021/04/08 06:48:47;;;;;;;7.82;3.42;;;2.80;99.90;;;;;;5030343;28;20025;-84
2021/04/08 06:51:21;;;;;;;8.43;2.97;;;2.80;99.90;;;;;;5030393;28;20025;-84
2021/04/08 06:53:47;;;;;;;7.70;3.55;;;2.80;99.90;;;;;;5036961;28;20117;-85
2021/04/08 06:56:13;;;;;;;6.68;3.30;;;2.80;99.90;;;;;;5032197;28;20045;-85
2021/04/08 06:58:40;;;;;;;8.20;3.20;;;2.90;99.90;;;;;;5029075;28;20025;-85
2021/04/08 07:01:09;;;;;;;7.90;3.10;;;2.90;99.90;;;;;;5031566;28;20036;-85
2021/04/08 07:03:35;;;;;;;7.68;3.03;;;2.90;99.90;;;;;;5028742;28;20030;-85
2021/04/08 07:06:02;;;;;;;7.30;3.40;;;2.90;99.90;;;;;;5030992;28;20026;-85
2021/04/08 07:08:30;;;;;;;8.98;3.25;;;3.00;99.90;;;;;;5047758;28;20032;-86
2021/04/08 07:10:56;;;;;;;7.03;3.30;;;3.00;99.90;;;;;;5045810;28;20087;-86
2021/04/08 07:13:22;;;;;;;4.75;2.70;;;3.10;99.90;;;;;;5034365;28;20053;-86
2021/04/08 07:15:47;;;;;;;9.32;4.38;;;3.20;99.90;;;;;;5029087;28;20064;-85
2021/04/08 07:18:14;;;;;;;8.20;3.05;;;3.20;99.90;;;;;;5036053;28;20469;-86
2021/04/08 07:20:40;;;;;;;6.35;3.70;;;3.30;99.90;;;;;;5034511;28;20084;-86
2021/04/08 07:23:15;;;;;;;5.50;3.10;;;3.40;99.90;;;;;;5035912;28;20091;-86
2021/04/08 07:26:19;;;;;;;7.13;3.05;;;3.50;99.90;;;;;;5034606;28;20540;-86
2021/04/08 07:28:44;;;;;;;7.75;3.17;;;3.60;99.90;;;;;;4978154;28;20062;-86
2021/04/08 07:31:24;;;;;;;9.95;4.18;;;3.60;99.90;;;;;;4994197;28;20104;-86
2021/04/08 07:33:51;;;;;;;7.25;3.30;;;3.80;99.90;;;;;;5018634;28;20035;-85
2021/04/08 07:36:32;;;;;;;8.48;3.63;;;3.80;99.90;;;;;;5028508;28;20030;-86
2021/04/08 07:38:59;;;;;;;5.78;2.83;;;3.90;99.90;;;;;;5032293;28;20021;-85
2021/04/08 07:41:33;;;;;;;9.48;3.55;;;4.00;98.50;;;;;;5033652;28;20050;-85
2021/04/08 07:44:07;;;;;;;9.05;3.00;;;4.10;98.10;;;;;;5027233;28;20100;-86
2021/04/08 07:46:37;;;;;;;10.45;3.70;;;4.20;96.60;;;;;;5032821;28;20052;-85
2021/04/08 07:49:05;;;;;;;7.35;3.08;;;4.30;96.40;;;;;;5034231;28;20044;-85
2021/04/08 07:51:33;;;;;;;7.88;2.90;;;4.40;96.50;;;;;;5047156;28;20034;-85
2021/04/08 07:54:12;;;;;;;6.47;3.05;;;4.50;95.80;;;;;;5034181;28;20029;-85
2021/04/08 07:56:39;;;;;;;8.57;2.80;;;4.60;96.30;;;;;;5034262;28;20393;-86
2021/04/08 07:59:17;;;;;;;7.32;2.60;;;4.60;96.30;;;;;;5034114;28;20053;-85
2021/04/08 08:01:49;;;;;;;6.53;2.47;;;4.80;95.00;;;;;;5035142;28;20057;-85
2021/04/08 08:04:27;;;;;;;7.03;2.05;;;4.90;94.70;;;;;;5050456;28;20021;-86
2021/04/08 08:06:54;;;;;;;4.97;2.30;;;5.00;94.10;;;;;;5033451;28;20032;-86
2021/04/08 08:09:22;;;;;;;5.80;2.22;;;5.10;92.80;;;;;;5050280;28;20125;-86
2021/04/08 08:11:49;;;;;;;7.88;2.20;;;5.20;91.70;;;;;;5050091;28;20032;-86
2021/04/08 08:14:15;;;;;;;5.97;2.40;;;5.30;91.10;;;;;;5033642;28;20026;-86
2021/04/08 08:17:01;;;;;;;4.15;1.98;;;5.30;90.00;;;;;;5033155;28;20022;-86
2021/04/08 08:19:27;;;;;;;6.50;2.25;;;5.50;90.40;;;;;;5035058;28;20018;-85
2021/04/08 08:21:53;;;;;;;7.30;3.13;;;5.70;90.60;;;;;;5033303;28;20112;-86
2021/04/08 08:24:19;;;;;;;6.25;2.75;;;6.00;89.50;;;;;;5033010;28;20109;-85
2021/04/08 08:26:47;;;;;;;6.18;2.30;;;6.30;88.20;;;;;;5034580;28;20477;-86
2021/04/08 08:29:23;;;;;;;4.60;1.83;;;6.40;85.50;;;;;;5033569;28;20037;-85
2021/04/08 08:32:04;;;;;;;6.07;1.88;;;6.40;79.30;;;;;;5034485;28;20026;-86
2021/04/08 08:34:31;;;;;;;7.32;2.20;;;6.30;76.60;;;;;;5033277;28;20049;-86
2021/04/08 08:36:59;;;;;;;5.72;1.75;;;6.20;74.90;;;;;;5033195;28;20120;-86
2021/04/08 08:39:30;;;;;;;7.63;2.63;;;6.20;76.00;;;;;;5034362;28;20033;-86
2021/04/08 08:41:58;;;;;;;9.20;2.55;;;6.20;76.80;;;;;;5034034;28;20158;-86
2021/04/08 08:44:25;;;;;;;5.97;2.65;;;6.30;79.50;;;;;;5034097;28;20017;-86
2021/04/08 08:47:13;;;;;;;7.97;2.60;;;6.30;76.50;;;;;;5033864;28;20022;-86
2021/04/08 08:49:42;;;;;;;7.85;2.40;;;6.40;75.90;;;;;;5032924;28;20075;-86
2021/04/08 08:52:10;;;;;;;5.10;2.50;;;6.40;72.40;;;;;;5033694;28;20029;-86
2021/04/08 08:54:37;;;;;;;8.70;2.88;;;6.40;76.90;;;;;;5033530;28;20267;-86
2021/04/08 08:57:04;;;;;;;5.70;2.60;;;6.40;73.90;;;;;;5032827;28;20037;-85
2021/04/08 08:59:30;;;;;;;7.85;3.08;;;6.50;73.10;;;;;;5032337;28;20041;-86
2021/04/08 09:01:57;;;;;;;6.93;2.78;;;6.60;75.40;;;;;;5032659;28;20040;-86
2021/04/08 09:04:23;;;;;;;6.40;2.75;;;6.70;77.20;;;;;;5034277;28;20080;-86
2021/04/08 09:06:50;;;;;;;5.45;2.85;;;6.70;74.80;;;;;;5032804;28;20021;-86
2021/04/08 09:09:18;;;;;;;7.88;3.13;;;6.80;73.90;;;;;;5029648;28;20029;-86
2021/04/08 09:11:45;;;;;;;7.43;3.10;;;6.80;74.20;;;;;;5032488;28;20025;-86
2021/04/08 09:14:11;;;;;;;8.57;3.38;;;6.90;72.90;;;;;;5032622;28;20489;-86
2021/04/08 09:16:45;;;;;;;5.38;3.33;;;6.90;71.30;;;;;;5033134;28;20025;-86
2021/04/08 09:19:11;;;;;;;9.20;3.55;;;7.00;70.90;;;;;;5023827;28;20021;-85
2021/04/08 09:21:50;;;;;;;7.32;3.83;;;7.10;71.20;;;;;;5033186;28;20028;-86
2021/04/08 09:24:32;;;;;;;7.72;3.40;;;7.20;70.50;;;;;;5029084;28;20016;-86
2021/04/08 09:26:58;;;;;;;6.20;3.67;;;7.40;72.20;;;;;;5036770;28;20022;-86
2021/04/08 09:30:10;;;;;;;8.30;3.25;;;7.60;70.20;;;;;;5013334;28;20109;-86
2021/04/08 09:32:33;;;;;;;10.95;3.47;;;7.70;66.60;;;;;;5011581;28;20610;-86
2021/04/08 09:35:04;;;;;;;5.75;3.42;;;7.60;66.30;;;;;;5012842;28;20375;-86
2021/04/08 09:37:48;;;;;;;8.27;3.50;;;7.60;66.00;;;;;;5012588;28;20502;-86
2021/04/08 09:40:34;;;;;;;8.10;3.70;;;7.60;63.60;;;;;;5012250;28;20491;-86
2021/04/08 09:43:06;;;;;;;10.20;3.47;;;7.60;66.90;;;;;;5013334;28;20151;-86
2021/04/08 09:45:41;;;;;;;6.75;3.85;;;7.60;61.20;;;;;;5013543;28;20092;-86
2021/04/08 09:48:07;;;;;;;8.20;3.45;;;7.60;61.50;;;;;;5013461;28;20026;-86
2021/04/08 09:50:49;;;;;;;8.05;3.63;;;7.60;60.00;;;;;;5012016;28;20100;-86
2021/04/08 09:53:17;;;;;;;6.95;3.47;;;7.60;61.70;;;;;;5014774;28;20520;-86
2021/04/08 09:55:52;;;;;;;7.03;3.97;;;7.50;59.10;;;;;;5024371;28;20030;-85
2021/04/08 09:58:25;;;;;;;9.20;4.05;;;7.50;60.70;;;;;;5029518;28;20435;-84
2021/04/08 10:00:52;;;;;;;7.70;3.55;;;7.60;58.80;;;;;;5021380;28;20056;-86
2021/04/08 10:03:39;;;;;;;6.43;3.47;;;7.70;61.60;;;;;;5032147;28;20104;-86
2021/04/08 10:06:16;;;;;;;9.30;4.32;;;7.60;55.40;;;;;;5030768;28;20029;-87
2021/04/08 10:08:42;;;;;;;9.15;3.55;;;7.60;56.60;;;;;;5031666;28;20464;-84
2021/04/08 10:11:08;;;;;;;5.97;3.80;;;7.60;60.00;;;;;;5031363;28;20057;-88
2021/04/08 10:13:35;;;;;;;6.20;4.00;;;7.70;60.10;;;;;;5031397;28;20026;-84
2021/04/08 10:16:14;;;;;;;7.28;3.95;;;7.80;57.60;;;;;;5020660;28;20462;-84
2021/04/08 10:18:41;;;;;;;7.57;4.03;;;7.80;58.80;;;;;;5012037;28;20022;-85
2021/04/08 10:21:14;;;;;;;6.70;3.78;;;7.80;58.10;;;;;;5013107;28;20382;-83
2021/04/08 10:23:41;;;;;;;8.90;4.20;;;7.70;56.80;;;;;;5028706;28;20026;-84
2021/04/08 10:26:13;;;;;;;7.47;4.07;;;7.60;56.70;;;;;;5031428;28;20048;-84
2021/04/08 10:28:42;;;;;;;6.97;3.63;;;7.70;59.20;;;;;;5031936;28;20030;-84
2021/04/08 10:31:29;;;;;;;10.10;4.30;;;7.70;58.90;;;;;;5029370;28;20504;-84
2021/04/08 10:34:03;;;;;;;8.15;3.78;;;7.70;57.70;;;;;;5027872;28;20041;-84
2021/04/08 10:36:33;;;;;;;6.03;3.50;;;7.80;58.80;;;;;;5031653;28;20036;-83
2021/04/08 10:39:05;;;;;;;9.43;4.03;;;7.80;58.20;;;;;;5032243;28;20029;-84
2021/04/08 10:41:31;;;;;;;8.30;4.03;;;7.80;58.90;;;;;;5019650;28;20390;-84
2021/04/08 10:44:20;;;;;;;7.80;4.03;;;7.80;59.00;;;;;;5025244;28;20516;-84
2021/04/08 10:46:46;;;;;;;8.13;4.47;;;7.90;60.90;;;;;;5031723;28;20071;-84
2021/04/08 10:49:19;;;;;;;7.15;4.22;;;8.00;58.30;;;;;;5026921;28;20045;-84
2021/04/08 10:51:45;;;;;;;6.72;4.53;;;8.00;58.00;;;;;;5034575;28;20111;-84
2021/04/08 10:54:10;;;;;;;9.60;5.50;;;8.10;61.00;;;;;;5023190;28;20038;-84
2021/04/08 10:56:37;;;;;;;6.82;4.30;;;8.20;59.80;;;;;;5017799;28;20033;-85
2021/04/08 10:59:20;;;;;;;10.07;5.30;;;8.20;57.70;;;;;;5048383;28;20052;-84
2021/04/08 11:01:47;;;;;;;8.57;4.50;;;8.20;57.30;;;;;;5016622;28;20034;-84
2021/04/08 11:04:13;;;;;;;8.48;5.25;;;8.10;56.50;;;;;;5051613;28;20029;-84
2021/04/08 11:06:38;;;;;;;7.88;4.88;;;8.10;58.60;;;;;;5035071;28;20098;-84
2021/04/08 11:09:05;;;;;;;7.13;4.82;;;8.10;59.50;;;;;;5035185;28;20029;-85
2021/04/08 11:11:30;;;;;;;8.35;5.22;;;8.20;57.80;;;;;;5036360;28;20112;-84
2021/04/08 11:13:56;;;;;;;9.10;6.00;;;8.10;57.20;;;;;;5034736;28;20396;-85
2021/04/08 11:16:22;;;;;;;10.25;5.03;;;8.10;58.80;;;;;;5034290;28;20469;-83
2021/04/08 11:18:48;;;;;;;9.95;5.80;;;8.00;57.80;;;;;;5034446;28;20051;-83
2021/04/08 11:21:14;;;;;;;11.93;5.00;;;7.90;57.30;;;;;;5035560;28;20461;-83
2021/04/08 11:23:39;;;;;;;7.03;5.65;;;7.90;58.00;;;;;;5035565;28;20105;-83
2021/04/08 11:26:08;;;;;;;9.75;5.05;;;7.90;58.10;;;;;;5026112;28;20060;-83
2021/04/08 11:28:41;;;;;;;10.98;6.07;;;7.90;57.30;;;;;;5033830;28;20028;-83
2021/04/08 11:31:16;;;;;;;9.55;6.03;;;8.00;59.00;;;;;;5035455;28;20068;-83
2021/04/08 11:33:42;;;;;;;10.25;6.18;;;8.20;60.40;;;;;;5027030;28;20157;-83
2021/04/08 11:36:26;;;;;;;9.55;5.50;;;8.40;59.90;;;;;;5035310;28;20060;-83
2021/04/08 11:38:52;;;;;;;10.48;6.30;;;8.50;57.20;;;;;;5028285;28;20029;-83
2021/04/08 11:41:18;;;;;;;7.32;5.32;;;8.50;57.00;;;;;;5034786;28;20065;-84
2021/04/08 11:43:47;;;;;;;13.32;6.57;;;8.60;58.20;;;;;;5033530;28;20120;-83
2021/04/08 11:46:28;;;;;;;13.40;6.65;;;8.60;56.90;;;;;;5033720;28;20116;-84
2021/04/08 11:48:54;;;;;;;10.00;6.28;;;8.50;56.20;;;;;;5027576;28;20022;-84
2021/04/08 11:51:26;;;;;;;8.30;5.70;;;8.40;57.50;;;;;;5034970;28;20025;-83
2021/04/08 11:53:52;;;;;;;12.82;6.28;;;8.30;58.70;;;;;;5033681;28;20025;-83
2021/04/08 11:56:34;;;;;;;9.30;6.03;;;8.30;57.40;;;;;;5024529;28;20030;-83
2021/04/08 11:59:21;;;;;;;10.75;6.30;;;8.20;56.00;;;;;;5026347;28;20048;-83
2021/04/08 12:01:49;;;;;;;9.27;5.47;;;8.00;57.90;;;;;;5034010;28;20503;-83
2021/04/08 12:04:17;;;;;;;7.97;6.40;;;8.00;58.40;;;;;;5035025;28;20025;-84
2021/04/08 12:06:48;;;;;;;8.75;6.90;;;8.00;58.80;;;;;;5050706;28;20030;-83
2021/04/08 12:09:14;;;;;;;11.88;6.97;;;8.00;60.00;;;;;;5035266;28;20026;-84
2021/04/08 12:11:52;;;;;;;8.55;6.63;;;8.00;59.00;;;;;;5050291;28;20033;-83
2021/04/08 12:14:18;;;;;;;9.48;7.00;;;8.00;59.00;;;;;;5029438;28;20029;-84
2021/04/08 12:16:44;;;;;;;7.95;5.85;;;7.90;58.30;;;;;;5033428;28;20121;-83
2021/04/08 12:19:21;;;;;;;12.98;6.13;;;7.90;58.90;;;;;;5032496;28;20149;-83
2021/04/08 12:22:01;;;;;;;11.55;7.15;;;7.90;58.80;;;;;;5032335;28;20124;-83
2021/04/08 12:24:27;;;;;;;10.63;7.20;;;7.90;58.70;;;;;;5033606;28;20017;-83
2021/04/08 12:26:52;;;;;;;10.00;7.30;;;8.00;61.10;;;;;;5034765;28;20052;-83
2021/04/08 12:29:20;;;;;;;12.68;7.47;;;8.00;59.00;;;;;;5034747;28;20359;-83
2021/04/08 12:31:50;;;;;;;10.52;7.55;;;8.00;62.00;;;;;;5033515;28;20083;-83
2021/04/08 12:34:15;;;;;;;10.37;7.20;;;8.00;60.90;;;;;;5033458;28;20048;-83
2021/04/08 12:36:42;;;;;;;10.23;7.43;;;8.00;58.70;;;;;;5034604;28;20473;-83
2021/04/08 12:39:07;;;;;;;9.50;7.40;;;8.10;60.40;;;;;;5033330;28;20026;-83
2021/04/08 12:41:33;;;;;;;11.98;7.88;;;8.20;60.80;;;;;;5032935;28;20049;-83
2021/04/08 12:43:58;;;;;;;10.18;7.22;;;8.30;60.30;;;;;;5033459;28;20549;-83
2021/04/08 12:46:24;;;;;;;9.52;7.32;;;8.30;59.70;;;;;;5032898;28;20026;-83
2021/04/08 12:48:49;;;;;;;10.48;7.68;;;8.30;57.50;;;;;;5033234;28;20048;-83
2021/04/08 12:51:15;;;;;;;10.85;8.05;;;8.30;57.00;;;;;;5034422;28;20033;-83
2021/04/08 12:53:42;;;;;;;13.63;8.57;;;8.30;58.00;;;;;;5034288;28;20396;-83
2021/04/08 12:56:08;;;;;;;9.65;7.20;;;8.30;57.80;;;;;;5033071;28;20029;-83
2021/04/08 12:58:34;;;;;;;11.02;7.18;;;8.40;58.10;;;;;;5034243;28;20037;-83
2021/04/08 13:00:59;;;;;;;10.05;7.25;;;8.50;59.50;;;;;;5032855;28;20032;-82
2021/04/08 13:03:25;;;;;;;12.70;7.28;;;8.60;58.40;;;;;;5034309;28;20056;-83